Airfield :
LOGIN :

Register | Disclaimer

   EN    FR    IT 

 










Legend :    VFR   Marginal VFR   IFR   Intensive IFR   Very Intensive IFR
Visi :
Ceiling :
>= 8 km
>= 3000ft
5 to 8 km
1000 to 3000 ft
1500m to 5 km
500 to 1000 ft
800 to 1500m
200 to 500 ft
< 800m
< 200 ft
Symbols :   Thunderstorms  Fog  Heavy snow  Heavy precipitations  Wind > 20 kt
SIGMETs :     Misc.  Thunderstorms  Icing  Turbulence  Mountain Waves  Volcanic Ashes







- Airport Elevation : 978 ft
- IATA code : LNZ


LOWL - Linz

CURRENT METAR :
  • 182220Z AUTO 26015KT 9999 //////CB FEW044 19/14 Q1020

EXPIRED METARs :
  • 182150Z AUTO 25009KT 220V280 9999 //////CB FEW050 19/16 Q1020
  • 182120Z AUTO 23008KT 9999 //////CB FEW080 BKN120 18/15 Q1019
  • 182050Z VRB02KT CAVOK 18/15 Q1018 NOSIG
  • 182020Z VRB01KT CAVOK 18/15 Q1018 NOSIG
  • 181950Z VRB01KT CAVOK 19/15 Q1018 NOSIG

TAF AMD TAF LOWL
Valid from the 18 at 21:00 until the 19 at 18:00 UTC


182104Z 1821/1918 VRB02KT CAVOK TX25/1915Z TN16/1905Z
TEMPO 1821/1902 9999 FEW050CB
TEMPO 1822/1908 26006KT 8000 -SHRA BKN030
PROB30
TEMPO 1900/1902 27015KT 8000 TSRA BKN030 FEW040CB
No reported NOTAMs for that airfield.



MET'MAP, your aeronautical weather chart ! - Copyright ORBIFLY December 2007 - Disclaimer

ORBIFLY MET'MAP TEAM :

Programming & Development : Alexandra Zaïnal
Concept & Development : Baudouin d'Aumeries
Co-Development & Prog : Marc-Olivier Méhu
Technical & hardware support : Manuel Goepfert

Contact : metmap@orbifly.com




SOURCES & CREDITS :

   NOAA